sensor_id;sensor_type;location;lat;lon;timestamp;P1;durP1;ratioP1;P2;durP2;ratioP2
39452;SDS011;25154;-33.684;151.102;2023-04-08T00:00:11;0.98;;;0.55;;
39452;SDS011;25154;-33.684;151.102;2023-04-08T00:05:17;0.85;;;0.50;;
39452;SDS011;25154;-33.684;151.102;2023-04-08T00:10:20;1.47;;;0.40;;
39452;SDS011;25154;-33.684;151.102;2023-04-08T00:15:23;0.40;;;0.32;;
39452;SDS011;25154;-33.684;151.102;2023-04-08T00:20:25;0.40;;;0.32;;
39452;SDS011;25154;-33.684;151.102;2023-04-08T00:25:28;0.60;;;0.22;;
39452;SDS011;25154;-33.684;151.102;2023-04-08T00:30:31;0.63;;;0.40;;
39452;SDS011;25154;-33.684;151.102;2023-04-08T00:35:34;0.30;;;0.30;;
39452;SDS011;25154;-33.684;151.102;2023-04-08T00:40:37;0.63;;;0.28;;
39452;SDS011;25154;-33.684;151.102;2023-04-08T00:45:40;1.58;;;0.30;;
39452;SDS011;25154;-33.684;151.102;2023-04-08T00:50:43;1.38;;;0.35;;
39452;SDS011;25154;-33.684;151.102;2023-04-08T00:55:47;2.50;;;0.30;;
39452;SDS011;25154;-33.684;151.102;2023-04-08T01:00:54;0.30;;;0.30;;
39452;SDS011;25154;-33.684;151.102;2023-04-08T01:11:50;5.60;;;1.10;;
39452;SDS011;25154;-33.684;151.102;2023-04-08T01:16:54;0.32;;;0.30;;
39452;SDS011;25154;-33.684;151.102;2023-04-08T01:22:10;0.30;;;0.30;;
39452;SDS011;25154;-33.684;151.102;2023-04-08T01:27:13;0.40;;;0.40;;
39452;SDS011;25154;-33.684;151.102;2023-04-08T01:32:18;0.50;;;0.40;;
39452;SDS011;25154;-33.684;151.102;2023-04-08T01:37:21;0.40;;;0.40;;
39452;SDS011;25154;-33.684;151.102;2023-04-08T01:42:24;1.00;;;0.38;;
39452;SDS011;25154;-33.684;151.102;2023-04-08T01:47:29;0.30;;;0.30;;
39452;SDS011;25154;-33.684;151.102;2023-04-08T01:52:32;0.60;;;0.40;;
39452;SDS011;25154;-33.684;151.102;2023-04-08T01:57:38;0.35;;;0.35;;
39452;SDS011;25154;-33.684;151.102;2023-04-08T02:02:44;0.43;;;0.30;;
39452;SDS011;25154;-33.684;151.102;2023-04-08T02:07:48;0.60;;;0.40;;
39452;SDS011;25154;-33.684;151.102;2023-04-08T02:12:51;0.60;;;0.35;;
39452;SDS011;25154;-33.684;151.102;2023-04-08T02:17:54;0.35;;;0.35;;
39452;SDS011;25154;-33.684;151.102;2023-04-08T02:23:18;0.30;;;0.30;;
39452;SDS011;25154;-33.684;151.102;2023-04-08T02:28:22;0.40;;;0.40;;
39452;SDS011;25154;-33.684;151.102;2023-04-08T02:33:27;0.55;;;0.30;;
39452;SDS011;25154;-33.684;151.102;2023-04-08T02:38:29;1.85;;;0.47;;
39452;SDS011;25154;-33.684;151.102;2023-04-08T02:43:32;0.40;;;0.32;;
39452;SDS011;25154;-33.684;151.102;2023-04-08T02:48:34;2.53;;;0.40;;
39452;SDS011;25154;-33.684;151.102;2023-04-08T02:53:37;0.65;;;0.60;;
39452;SDS011;25154;-33.684;151.102;2023-04-08T02:58:39;0.35;;;0.35;;
39452;SDS011;25154;-33.684;151.102;2023-04-08T03:03:41;0.90;;;0.50;;
39452;SDS011;25154;-33.684;151.102;2023-04-08T03:08:44;0.45;;;0.45;;
39452;SDS011;25154;-33.684;151.102;2023-04-08T03:13:46;0.70;;;0.40;;
39452;SDS011;25154;-33.684;151.102;2023-04-08T03:18:51;0.90;;;0.40;;
39452;SDS011;25154;-33.684;151.102;2023-04-08T03:23:54;0.20;;;0.20;;
39452;SDS011;25154;-33.684;151.102;2023-04-08T03:28:56;0.40;;;0.40;;
39452;SDS011;25154;-33.684;151.102;2023-04-08T03:33:58;0.43;;;0.43;;
39452;SDS011;25154;-33.684;151.102;2023-04-08T03:39:01;0.30;;;0.30;;
39452;SDS011;25154;-33.684;151.102;2023-04-08T03:44:03;0.40;;;0.40;;
39452;SDS011;25154;-33.684;151.102;2023-04-08T03:49:05;0.38;;;0.38;;
39452;SDS011;25154;-33.684;151.102;2023-04-08T03:54:08;0.43;;;0.40;;
39452;SDS011;25154;-33.684;151.102;2023-04-08T03:59:10;0.35;;;0.35;;
39452;SDS011;25154;-33.684;151.102;2023-04-08T04:04:13;0.82;;;0.50;;
39452;SDS011;25154;-33.684;151.102;2023-04-08T04:09:15;2.35;;;0.60;;
39452;SDS011;25154;-33.684;151.102;2023-04-08T04:14:18;0.88;;;0.50;;
39452;SDS011;25154;-33.684;151.102;2023-04-08T04:19:20;0.40;;;0.40;;
39452;SDS011;25154;-33.684;151.102;2023-04-08T04:24:22;0.43;;;0.43;;
39452;SDS011;25154;-33.684;151.102;2023-04-08T04:29:25;0.50;;;0.50;;
39452;SDS011;25154;-33.684;151.102;2023-04-08T04:34:28;0.90;;;0.30;;
39452;SDS011;25154;-33.684;151.102;2023-04-08T04:39:30;0.40;;;0.40;;
39452;SDS011;25154;-33.684;151.102;2023-04-08T04:44:33;1.08;;;0.47;;
39452;SDS011;25154;-33.684;151.102;2023-04-08T04:49:35;1.63;;;0.60;;
39452;SDS011;25154;-33.684;151.102;2023-04-08T04:54:39;0.77;;;0.40;;
39452;SDS011;25154;-33.684;151.102;2023-04-08T04:59:42;1.67;;;0.57;;
39452;SDS011;25154;-33.684;151.102;2023-04-08T05:04:44;0.88;;;0.60;;
39452;SDS011;25154;-33.684;151.102;2023-04-08T05:09:47;0.90;;;0.60;;
39452;SDS011;25154;-33.684;151.102;2023-04-08T05:14:50;0.55;;;0.55;;
39452;SDS011;25154;-33.684;151.102;2023-04-08T05:19:55;1.80;;;0.60;;
39452;SDS011;25154;-33.684;151.102;2023-04-08T05:24:57;0.68;;;0.60;;
39452;SDS011;25154;-33.684;151.102;2023-04-08T05:30:00;0.85;;;0.60;;
39452;SDS011;25154;-33.684;151.102;2023-04-08T05:35:03;0.60;;;0.60;;
39452;SDS011;25154;-33.684;151.102;2023-04-08T05:40:06;0.60;;;0.60;;
39452;SDS011;25154;-33.684;151.102;2023-04-08T05:45:09;0.95;;;0.70;;
39452;SDS011;25154;-33.684;151.102;2023-04-08T05:50:12;1.38;;;0.80;;
39452;SDS011;25154;-33.684;151.102;2023-04-08T05:55:14;1.55;;;0.80;;
39452;SDS011;25154;-33.684;151.102;2023-04-08T06:00:16;3.03;;;0.77;;
39452;SDS011;25154;-33.684;151.102;2023-04-08T06:05:19;1.35;;;0.90;;
39452;SDS011;25154;-33.684;151.102;2023-04-08T06:10:22;1.52;;;0.85;;
39452;SDS011;25154;-33.684;151.102;2023-04-08T06:15:24;1.65;;;0.85;;
39452;SDS011;25154;-33.684;151.102;2023-04-08T06:20:27;1.73;;;0.98;;
39452;SDS011;25154;-33.684;151.102;2023-04-08T06:25:30;1.40;;;0.80;;
39452;SDS011;25154;-33.684;151.102;2023-04-08T06:30:32;1.90;;;1.35;;
39452;SDS011;25154;-33.684;151.102;2023-04-08T06:35:34;1.63;;;1.02;;
39452;SDS011;25154;-33.684;151.102;2023-04-08T06:40:38;1.83;;;1.02;;
39452;SDS011;25154;-33.684;151.102;2023-04-08T06:45:40;2.13;;;1.25;;
39452;SDS011;25154;-33.684;151.102;2023-04-08T06:50:42;3.00;;;1.33;;
39452;SDS011;25154;-33.684;151.102;2023-04-08T06:55:45;2.85;;;1.30;;
39452;SDS011;25154;-33.684;151.102;2023-04-08T07:00:47;1.85;;;1.23;;
39452;SDS011;25154;-33.684;151.102;2023-04-08T07:05:50;2.63;;;1.20;;
39452;SDS011;25154;-33.684;151.102;2023-04-08T07:10:53;2.40;;;1.30;;
39452;SDS011;25154;-33.684;151.102;2023-04-08T07:15:55;2.70;;;1.25;;
39452;SDS011;25154;-33.684;151.102;2023-04-08T07:20:58;2.28;;;1.20;;
39452;SDS011;25154;-33.684;151.102;2023-04-08T07:26:03;2.97;;;1.50;;
39452;SDS011;25154;-33.684;151.102;2023-04-08T07:31:15;7.65;;;1.77;;
39452;SDS011;25154;-33.684;151.102;2023-04-08T07:36:18;2.50;;;1.38;;
39452;SDS011;25154;-33.684;151.102;2023-04-08T07:41:20;3.13;;;1.50;;
39452;SDS011;25154;-33.684;151.102;2023-04-08T07:46:23;3.47;;;1.58;;
39452;SDS011;25154;-33.684;151.102;2023-04-08T07:51:25;3.20;;;1.30;;
39452;SDS011;25154;-33.684;151.102;2023-04-08T07:56:27;2.78;;;1.42;;
39452;SDS011;25154;-33.684;151.102;2023-04-08T08:01:30;2.88;;;1.58;;
39452;SDS011;25154;-33.684;151.102;2023-04-08T08:06:34;4.97;;;1.52;;
39452;SDS011;25154;-33.684;151.102;2023-04-08T08:11:36;2.95;;;1.50;;
39452;SDS011;25154;-33.684;151.102;2023-04-08T08:16:39;2.70;;;1.42;;
39452;SDS011;25154;-33.684;151.102;2023-04-08T08:21:42;4.43;;;1.92;;
39452;SDS011;25154;-33.684;151.102;2023-04-08T08:26:44;4.35;;;1.60;;
39452;SDS011;25154;-33.684;151.102;2023-04-08T08:31:48;4.13;;;1.75;;
39452;SDS011;25154;-33.684;151.102;2023-04-08T08:36:51;5.03;;;1.98;;
39452;SDS011;25154;-33.684;151.102;2023-04-08T08:41:53;2.85;;;1.73;;
39452;SDS011;25154;-33.684;151.102;2023-04-08T08:46:56;4.03;;;1.75;;
39452;SDS011;25154;-33.684;151.102;2023-04-08T08:51:58;3.72;;;1.70;;
39452;SDS011;25154;-33.684;151.102;2023-04-08T08:57:01;4.13;;;2.00;;
39452;SDS011;25154;-33.684;151.102;2023-04-08T09:02:04;3.08;;;1.67;;
39452;SDS011;25154;-33.684;151.102;2023-04-08T09:07:28;3.38;;;1.77;;
39452;SDS011;25154;-33.684;151.102;2023-04-08T09:12:32;3.45;;;2.08;;
39452;SDS011;25154;-33.684;151.102;2023-04-08T09:17:35;4.88;;;2.10;;
39452;SDS011;25154;-33.684;151.102;2023-04-08T09:28:00;4.15;;;2.10;;
39452;SDS011;25154;-33.684;151.102;2023-04-08T09:33:03;4.72;;;2.05;;
39452;SDS011;25154;-33.684;151.102;2023-04-08T09:38:06;4.13;;;2.10;;
39452;SDS011;25154;-33.684;151.102;2023-04-08T09:43:09;4.85;;;2.03;;
39452;SDS011;25154;-33.684;151.102;2023-04-08T09:48:16;3.05;;;1.73;;
39452;SDS011;25154;-33.684;151.102;2023-04-08T09:53:25;4.03;;;2.08;;
39452;SDS011;25154;-33.684;151.102;2023-04-08T09:58:42;3.60;;;1.90;;
39452;SDS011;25154;-33.684;151.102;2023-04-08T10:03:53;3.20;;;1.80;;
39452;SDS011;25154;-33.684;151.102;2023-04-08T10:08:59;4.97;;;2.17;;
39452;SDS011;25154;-33.684;151.102;2023-04-08T10:14:02;4.65;;;2.17;;
39452;SDS011;25154;-33.684;151.102;2023-04-08T10:24:46;4.87;;;1.93;;
39452;SDS011;25154;-33.684;151.102;2023-04-08T10:35:31;4.47;;;2.15;;
39452;SDS011;25154;-33.684;151.102;2023-04-08T10:40:38;3.17;;;1.50;;
39452;SDS011;25154;-33.684;151.102;2023-04-08T10:45:42;3.38;;;1.50;;
39452;SDS011;25154;-33.684;151.102;2023-04-08T10:51:01;2.92;;;1.50;;
39452;SDS011;25154;-33.684;151.102;2023-04-08T10:56:09;3.60;;;1.60;;
39452;SDS011;25154;-33.684;151.102;2023-04-08T11:01:17;3.53;;;1.48;;
39452;SDS011;25154;-33.684;151.102;2023-04-08T11:06:21;3.42;;;1.30;;
39452;SDS011;25154;-33.684;151.102;2023-04-08T11:11:24;2.38;;;1.10;;
39452;SDS011;25154;-33.684;151.102;2023-04-08T11:16:29;4.15;;;1.63;;
39452;SDS011;25154;-33.684;151.102;2023-04-08T11:21:36;3.05;;;1.30;;
39452;SDS011;25154;-33.684;151.102;2023-04-08T11:31:42;6.13;;;1.80;;
39452;SDS011;25154;-33.684;151.102;2023-04-08T11:36:46;4.22;;;1.60;;
39452;SDS011;25154;-33.684;151.102;2023-04-08T11:41:50;4.30;;;1.80;;
39452;SDS011;25154;-33.684;151.102;2023-04-08T11:46:53;5.32;;;1.90;;
39452;SDS011;25154;-33.684;151.102;2023-04-08T11:51:57;4.20;;;1.67;;
39452;SDS011;25154;-33.684;151.102;2023-04-08T11:57:01;3.70;;;1.90;;
39452;SDS011;25154;-33.684;151.102;2023-04-08T12:02:03;6.00;;;1.80;;
39452;SDS011;25154;-33.684;151.102;2023-04-08T12:07:07;3.55;;;1.70;;
39452;SDS011;25154;-33.684;151.102;2023-04-08T12:12:11;2.95;;;1.67;;
39452;SDS011;25154;-33.684;151.102;2023-04-08T12:17:23;4.68;;;1.60;;
39452;SDS011;25154;-33.684;151.102;2023-04-08T12:22:26;3.45;;;1.60;;
39452;SDS011;25154;-33.684;151.102;2023-04-08T12:27:37;3.83;;;1.60;;
39452;SDS011;25154;-33.684;151.102;2023-04-08T12:32:40;4.03;;;2.05;;
39452;SDS011;25154;-33.684;151.102;2023-04-08T12:37:45;2.65;;;1.40;;
39452;SDS011;25154;-33.684;151.102;2023-04-08T12:42:47;3.50;;;1.65;;
39452;SDS011;25154;-33.684;151.102;2023-04-08T12:47:54;3.33;;;1.48;;
39452;SDS011;25154;-33.684;151.102;2023-04-08T12:52:57;4.22;;;1.52;;
39452;SDS011;25154;-33.684;151.102;2023-04-08T12:58:00;2.50;;;1.30;;
39452;SDS011;25154;-33.684;151.102;2023-04-08T13:03:03;3.15;;;1.58;;
39452;SDS011;25154;-33.684;151.102;2023-04-08T13:08:06;4.15;;;1.52;;
39452;SDS011;25154;-33.684;151.102;2023-04-08T13:13:09;5.47;;;1.60;;
39452;SDS011;25154;-33.684;151.102;2023-04-08T13:18:13;3.40;;;1.48;;
39452;SDS011;25154;-33.684;151.102;2023-04-08T13:23:16;3.55;;;1.50;;
39452;SDS011;25154;-33.684;151.102;2023-04-08T13:28:19;2.35;;;1.15;;
39452;SDS011;25154;-33.684;151.102;2023-04-08T13:33:24;5.03;;;1.40;;
39452;SDS011;25154;-33.684;151.102;2023-04-08T13:38:27;4.43;;;1.35;;
39452;SDS011;25154;-33.684;151.102;2023-04-08T13:43:29;2.03;;;1.15;;
39452;SDS011;25154;-33.684;151.102;2023-04-08T13:48:31;3.42;;;1.20;;
39452;SDS011;25154;-33.684;151.102;2023-04-08T13:53:34;2.88;;;1.20;;
39452;SDS011;25154;-33.684;151.102;2023-04-08T13:58:36;3.22;;;1.23;;
39452;SDS011;25154;-33.684;151.102;2023-04-08T14:03:43;1.17;;;0.90;;
39452;SDS011;25154;-33.684;151.102;2023-04-08T14:08:45;3.70;;;1.35;;
39452;SDS011;25154;-33.684;151.102;2023-04-08T14:13:48;3.63;;;1.10;;
39452;SDS011;25154;-33.684;151.102;2023-04-08T14:18:50;1.55;;;0.82;;
39452;SDS011;25154;-33.684;151.102;2023-04-08T14:23:52;2.00;;;1.10;;
39452;SDS011;25154;-33.684;151.102;2023-04-08T14:28:55;2.90;;;1.13;;
39452;SDS011;25154;-33.684;151.102;2023-04-08T14:33:58;3.05;;;1.10;;
39452;SDS011;25154;-33.684;151.102;2023-04-08T14:39:02;2.40;;;1.10;;
39452;SDS011;25154;-33.684;151.102;2023-04-08T14:44:04;2.33;;;0.95;;
39452;SDS011;25154;-33.684;151.102;2023-04-08T14:49:07;1.73;;;0.93;;
39452;SDS011;25154;-33.684;151.102;2023-04-08T14:54:09;1.70;;;0.90;;
39452;SDS011;25154;-33.684;151.102;2023-04-08T14:59:13;1.50;;;0.98;;
39452;SDS011;25154;-33.684;151.102;2023-04-08T15:04:16;1.63;;;0.90;;
39452;SDS011;25154;-33.684;151.102;2023-04-08T15:09:18;1.80;;;0.90;;
39452;SDS011;25154;-33.684;151.102;2023-04-08T15:14:21;3.53;;;0.80;;
39452;SDS011;25154;-33.684;151.102;2023-04-08T15:19:23;2.40;;;0.90;;
39452;SDS011;25154;-33.684;151.102;2023-04-08T15:24:27;2.35;;;0.90;;
39452;SDS011;25154;-33.684;151.102;2023-04-08T15:29:29;3.28;;;1.50;;
39452;SDS011;25154;-33.684;151.102;2023-04-08T15:34:32;2.78;;;0.93;;
39452;SDS011;25154;-33.684;151.102;2023-04-08T15:39:34;4.95;;;0.80;;
39452;SDS011;25154;-33.684;151.102;2023-04-08T15:44:36;1.90;;;0.70;;
39452;SDS011;25154;-33.684;151.102;2023-04-08T15:49:39;1.88;;;0.60;;
39452;SDS011;25154;-33.684;151.102;2023-04-08T15:54:41;1.50;;;0.80;;
39452;SDS011;25154;-33.684;151.102;2023-04-08T15:59:43;4.45;;;0.88;;
39452;SDS011;25154;-33.684;151.102;2023-04-08T16:04:46;1.55;;;0.70;;
39452;SDS011;25154;-33.684;151.102;2023-04-08T16:09:48;2.45;;;0.68;;
39452;SDS011;25154;-33.684;151.102;2023-04-08T16:14:50;1.95;;;0.73;;
39452;SDS011;25154;-33.684;151.102;2023-04-08T16:19:54;2.35;;;0.80;;
39452;SDS011;25154;-33.684;151.102;2023-04-08T16:24:56;3.97;;;1.35;;
39452;SDS011;25154;-33.684;151.102;2023-04-08T16:29:59;2.92;;;0.77;;
39452;SDS011;25154;-33.684;151.102;2023-04-08T16:35:01;1.83;;;0.70;;
39452;SDS011;25154;-33.684;151.102;2023-04-08T16:40:04;1.52;;;0.80;;
39452;SDS011;25154;-33.684;151.102;2023-04-08T16:45:07;1.95;;;0.80;;
39452;SDS011;25154;-33.684;151.102;2023-04-08T16:50:10;2.60;;;0.68;;
39452;SDS011;25154;-33.684;151.102;2023-04-08T16:55:14;2.95;;;0.80;;
39452;SDS011;25154;-33.684;151.102;2023-04-08T17:00:17;2.80;;;0.77;;
39452;SDS011;25154;-33.684;151.102;2023-04-08T17:05:21;1.88;;;0.80;;
39452;SDS011;25154;-33.684;151.102;2023-04-08T17:10:24;3.05;;;0.88;;
39452;SDS011;25154;-33.684;151.102;2023-04-08T17:15:27;1.15;;;0.70;;
39452;SDS011;25154;-33.684;151.102;2023-04-08T17:20:30;1.98;;;0.70;;
39452;SDS011;25154;-33.684;151.102;2023-04-08T17:25:33;2.08;;;0.82;;
39452;SDS011;25154;-33.684;151.102;2023-04-08T17:30:35;1.83;;;1.00;;
39452;SDS011;25154;-33.684;151.102;2023-04-08T17:35:40;4.47;;;0.80;;
39452;SDS011;25154;-33.684;151.102;2023-04-08T17:40:43;4.47;;;0.85;;
39452;SDS011;25154;-33.684;151.102;2023-04-08T17:45:46;4.00;;;1.00;;
39452;SDS011;25154;-33.684;151.102;2023-04-08T17:50:57;1.00;;;0.70;;
39452;SDS011;25154;-33.684;151.102;2023-04-08T17:56:03;2.53;;;0.80;;
39452;SDS011;25154;-33.684;151.102;2023-04-08T18:01:06;1.83;;;0.77;;
39452;SDS011;25154;-33.684;151.102;2023-04-08T18:06:09;2.45;;;0.75;;
39452;SDS011;25154;-33.684;151.102;2023-04-08T18:11:11;1.13;;;0.70;;
39452;SDS011;25154;-33.684;151.102;2023-04-08T18:16:15;1.63;;;0.70;;
39452;SDS011;25154;-33.684;151.102;2023-04-08T18:21:18;3.60;;;1.00;;
39452;SDS011;25154;-33.684;151.102;2023-04-08T18:26:21;2.10;;;0.70;;
39452;SDS011;25154;-33.684;151.102;2023-04-08T18:31:24;1.98;;;0.90;;
39452;SDS011;25154;-33.684;151.102;2023-04-08T18:36:27;2.40;;;0.82;;
39452;SDS011;25154;-33.684;151.102;2023-04-08T18:41:29;2.05;;;0.75;;
39452;SDS011;25154;-33.684;151.102;2023-04-08T18:46:32;1.77;;;1.10;;
39452;SDS011;25154;-33.684;151.102;2023-04-08T18:51:35;3.83;;;1.10;;
39452;SDS011;25154;-33.684;151.102;2023-04-08T18:56:38;2.13;;;0.80;;
39452;SDS011;25154;-33.684;151.102;2023-04-08T19:01:41;7.68;;;1.00;;
39452;SDS011;25154;-33.684;151.102;2023-04-08T19:06:44;2.17;;;0.88;;
39452;SDS011;25154;-33.684;151.102;2023-04-08T19:11:47;1.90;;;0.77;;
39452;SDS011;25154;-33.684;151.102;2023-04-08T19:16:49;3.55;;;0.80;;
39452;SDS011;25154;-33.684;151.102;2023-04-08T19:21:52;2.53;;;0.98;;
39452;SDS011;25154;-33.684;151.102;2023-04-08T19:26:55;3.55;;;0.80;;
39452;SDS011;25154;-33.684;151.102;2023-04-08T19:31:57;4.07;;;0.90;;
39452;SDS011;25154;-33.684;151.102;2023-04-08T19:37:01;1.58;;;0.90;;
39452;SDS011;25154;-33.684;151.102;2023-04-08T19:42:03;2.28;;;0.80;;
39452;SDS011;25154;-33.684;151.102;2023-04-08T19:47:06;2.20;;;0.68;;
39452;SDS011;25154;-33.684;151.102;2023-04-08T19:52:09;1.58;;;0.70;;
39452;SDS011;25154;-33.684;151.102;2023-04-08T19:57:12;1.77;;;0.60;;
39452;SDS011;25154;-33.684;151.102;2023-04-08T20:02:14;1.60;;;0.85;;
39452;SDS011;25154;-33.684;151.102;2023-04-08T20:07:17;1.38;;;0.60;;
39452;SDS011;25154;-33.684;151.102;2023-04-08T20:12:20;2.35;;;0.90;;
39452;SDS011;25154;-33.684;151.102;2023-04-08T20:17:23;2.03;;;0.70;;
39452;SDS011;25154;-33.684;151.102;2023-04-08T20:22:26;1.75;;;0.63;;
39452;SDS011;25154;-33.684;151.102;2023-04-08T20:27:30;1.15;;;0.70;;
39452;SDS011;25154;-33.684;151.102;2023-04-08T20:32:33;0.95;;;0.60;;
39452;SDS011;25154;-33.684;151.102;2023-04-08T20:37:36;2.75;;;0.70;;
39452;SDS011;25154;-33.684;151.102;2023-04-08T20:42:38;2.28;;;0.75;;
39452;SDS011;25154;-33.684;151.102;2023-04-08T20:47:42;4.60;;;0.70;;
39452;SDS011;25154;-33.684;151.102;2023-04-08T20:52:45;2.70;;;0.75;;
39452;SDS011;25154;-33.684;151.102;2023-04-08T20:57:48;0.45;;;0.45;;
39452;SDS011;25154;-33.684;151.102;2023-04-08T21:02:51;1.35;;;0.60;;
39452;SDS011;25154;-33.684;151.102;2023-04-08T21:07:53;1.13;;;0.55;;
39452;SDS011;25154;-33.684;151.102;2023-04-08T21:12:56;1.65;;;0.50;;
39452;SDS011;25154;-33.684;151.102;2023-04-08T21:18:00;1.05;;;0.52;;
39452;SDS011;25154;-33.684;151.102;2023-04-08T21:23:06;4.47;;;0.90;;
39452;SDS011;25154;-33.684;151.102;2023-04-08T21:28:09;1.60;;;0.63;;
39452;SDS011;25154;-33.684;151.102;2023-04-08T21:33:12;1.55;;;0.57;;
39452;SDS011;25154;-33.684;151.102;2023-04-08T21:38:15;2.90;;;0.60;;
39452;SDS011;25154;-33.684;151.102;2023-04-08T21:43:18;0.65;;;0.45;;
39452;SDS011;25154;-33.684;151.102;2023-04-08T21:48:21;0.63;;;0.40;;
39452;SDS011;25154;-33.684;151.102;2023-04-08T21:53:24;2.15;;;0.77;;
39452;SDS011;25154;-33.684;151.102;2023-04-08T21:58:27;1.48;;;0.63;;
39452;SDS011;25154;-33.684;151.102;2023-04-08T22:03:30;2.03;;;0.60;;
39452;SDS011;25154;-33.684;151.102;2023-04-08T22:08:32;1.48;;;0.60;;
39452;SDS011;25154;-33.684;151.102;2023-04-08T22:13:35;4.80;;;0.77;;
39452;SDS011;25154;-33.684;151.102;2023-04-08T22:18:38;1.25;;;0.70;;
39452;SDS011;25154;-33.684;151.102;2023-04-08T22:23:41;1.63;;;0.60;;
39452;SDS011;25154;-33.684;151.102;2023-04-08T22:28:44;1.30;;;0.60;;
39452;SDS011;25154;-33.684;151.102;2023-04-08T22:33:46;1.05;;;0.50;;
39452;SDS011;25154;-33.684;151.102;2023-04-08T22:38:49;0.95;;;0.63;;
39452;SDS011;25154;-33.684;151.102;2023-04-08T22:43:52;1.00;;;0.47;;
39452;SDS011;25154;-33.684;151.102;2023-04-08T22:48:55;4.68;;;0.80;;
39452;SDS011;25154;-33.684;151.102;2023-04-08T22:53:58;2.55;;;0.55;;
39452;SDS011;25154;-33.684;151.102;2023-04-08T22:59:00;2.17;;;0.75;;
39452;SDS011;25154;-33.684;151.102;2023-04-08T23:04:03;2.05;;;0.95;;
39452;SDS011;25154;-33.684;151.102;2023-04-08T23:09:06;2.15;;;0.73;;
39452;SDS011;25154;-33.684;151.102;2023-04-08T23:14:09;1.73;;;0.60;;
39452;SDS011;25154;-33.684;151.102;2023-04-08T23:19:11;2.17;;;0.70;;
39452;SDS011;25154;-33.684;151.102;2023-04-08T23:24:15;2.95;;;0.70;;
39452;SDS011;25154;-33.684;151.102;2023-04-08T23:29:18;3.53;;;1.50;;
39452;SDS011;25154;-33.684;151.102;2023-04-08T23:34:21;2.85;;;0.60;;
39452;SDS011;25154;-33.684;151.102;2023-04-08T23:39:24;3.63;;;0.70;;
39452;SDS011;25154;-33.684;151.102;2023-04-08T23:44:26;2.22;;;0.75;;
39452;SDS011;25154;-33.684;151.102;2023-04-08T23:49:29;1.48;;;0.50;;
39452;SDS011;25154;-33.684;151.102;2023-04-08T23:54:32;1.23;;;0.70;;
39452;SDS011;25154;-33.684;151.102;2023-04-08T23:59:35;2.95;;;1.00;;
